createdAt,value
2018-06-22T00:01:03.944Z,10.60
2018-06-22T00:03:32.297Z,10.50
2018-06-22T00:06:00.742Z,10.50
2018-06-22T00:08:29.107Z,10.50
2018-06-22T00:10:57.508Z,10.60
2018-06-22T00:13:25.876Z,10.50
2018-06-22T00:15:54.214Z,10.50
2018-06-22T00:18:22.601Z,10.60
2018-06-22T00:20:50.946Z,10.50
2018-06-22T00:25:47.535Z,10.40
2018-06-22T00:28:15.876Z,10.40
2018-06-22T00:33:12.338Z,10.40
2018-06-22T00:40:36.871Z,10.40
2018-06-22T00:43:05.242Z,10.40
2018-06-22T00:48:01.705Z,10.40
2018-06-22T00:50:30.063Z,10.40
2018-06-22T00:55:26.559Z,10.30
2018-06-22T00:57:54.899Z,10.30
2018-06-22T01:12:43.635Z,10.30
2018-06-22T01:20:08.129Z,10.30
2018-06-22T01:22:36.464Z,10.30
2018-06-22T01:25:04.851Z,10.30
2018-06-22T01:27:33.180Z,10.30
2018-06-22T01:30:01.539Z,10.30
2018-06-22T01:32:29.928Z,10.30
2018-06-22T01:34:58.260Z,10.30
2018-06-22T01:37:26.570Z,10.30
2018-06-22T01:39:54.979Z,10.30
2018-06-22T01:44:51.426Z,10.30
2018-06-22T01:49:47.949Z,10.30
2018-06-22T01:52:16.613Z,10.30
2018-06-22T01:54:45.033Z,10.30
2018-06-22T01:57:13.340Z,10.30
2018-06-22T02:02:09.838Z,10.40
2018-06-22T02:04:38.205Z,10.40
2018-06-22T02:07:06.591Z,10.30
2018-06-22T02:09:34.940Z,10.40
2018-06-22T02:12:03.279Z,10.40
2018-06-22T02:14:33.205Z,10.30
2018-06-22T02:24:25.935Z,10.30
2018-06-22T02:26:54.261Z,10.30
2018-06-22T02:29:22.590Z,10.30
2018-06-22T02:31:50.997Z,10.30
2018-06-22T02:34:19.359Z,10.30
2018-06-22T02:36:48.647Z,10.20
2018-06-22T02:39:17.024Z,10.20
2018-06-22T02:44:13.413Z,10.10
2018-06-22T02:46:43.175Z,10.10
2018-06-22T02:51:40.565Z,10.10
2018-06-22T02:54:08.982Z,10.10
2018-06-22T02:56:37.402Z,10.10
2018-06-22T03:01:33.927Z,10.20
2018-06-22T03:04:02.289Z,10.20
2018-06-22T03:06:30.649Z,10.20
2018-06-22T03:08:59.007Z,10.20
2018-06-22T03:11:27.431Z,10.30
2018-06-22T03:13:55.802Z,10.30
2018-06-22T03:16:24.174Z,10.30
2018-06-22T03:18:54.124Z,10.30
2018-06-22T03:21:22.489Z,10.30
2018-06-22T03:23:50.872Z,10.30
2018-06-22T03:26:19.278Z,10.40
2018-06-22T03:28:47.623Z,10.40
2018-06-22T03:31:16.048Z,10.40
2018-06-22T03:36:12.430Z,10.30
2018-06-22T03:38:40.776Z,10.30
2018-06-22T03:43:37.604Z,10.40
2018-06-22T03:46:06.002Z,10.40
2018-06-22T03:48:34.323Z,10.40
2018-06-22T03:51:02.696Z,10.40
2018-06-22T03:53:31.073Z,10.40
2018-06-22T03:55:59.418Z,10.40
2018-06-22T04:00:55.966Z,10.40
2018-06-22T04:03:25.477Z,10.30
2018-06-22T04:08:21.997Z,10.20
2018-06-22T04:10:50.317Z,10.20
2018-06-22T04:15:46.944Z,10.20
2018-06-22T04:18:15.345Z,10.20
2018-06-22T04:20:43.694Z,10.20
2018-06-22T04:23:12.999Z,10.30
2018-06-22T04:25:41.392Z,10.30
2018-06-22T04:28:10.919Z,10.30
2018-06-22T04:33:10.024Z,10.20
2018-06-22T04:40:35.252Z,10.30
2018-06-22T04:43:03.659Z,10.30
2018-06-22T04:45:31.999Z,9.90
2018-06-22T04:48:00.290Z,10.40
2018-06-22T04:50:28.811Z,10.40
2018-06-22T04:52:57.169Z,10.40
2018-06-22T04:57:53.716Z,10.40
2018-06-22T05:02:50.220Z,10.50
2018-06-22T05:05:18.580Z,10.50
2018-06-22T05:07:47.031Z,10.60
2018-06-22T05:10:15.434Z,10.70
2018-06-22T05:12:43.779Z,10.70
2018-06-22T05:15:13.414Z,10.80
2018-06-22T05:25:06.495Z,11.00
2018-06-22T05:30:03.484Z,11.00
2018-06-22T05:34:59.872Z,11.10
2018-06-22T05:37:28.313Z,11.10
2018-06-22T05:42:24.757Z,11.00
2018-06-22T05:47:21.240Z,11.00
2018-06-22T05:49:49.629Z,11.00
2018-06-22T05:52:18.003Z,11.00
2018-06-22T05:54:46.409Z,11.00
2018-06-22T05:57:14.883Z,11.00
2018-06-22T06:07:07.971Z,11.10
2018-06-22T06:09:36.313Z,11.00
2018-06-22T06:17:00.912Z,11.20
2018-06-22T06:19:29.261Z,11.40
2018-06-22T06:21:57.631Z,11.60
2018-06-22T06:24:25.995Z,11.80
2018-06-22T06:26:54.373Z,11.80
2018-06-22T06:29:22.756Z,11.80
2018-06-22T06:31:51.392Z,11.90
2018-06-22T06:34:19.754Z,11.90
2018-06-22T06:36:48.128Z,11.90
2018-06-22T06:39:16.505Z,12.00
2018-06-22T06:41:44.977Z,12.10
2018-06-22T06:46:41.524Z,12.40
2018-06-22T06:49:09.913Z,12.60
2018-06-22T06:51:38.392Z,12.70
2018-06-22T06:54:06.732Z,12.60
2018-06-22T06:59:03.291Z,12.50
2018-06-22T07:04:00.654Z,12.30
2018-06-22T07:08:57.285Z,12.20
2018-06-22T07:11:25.702Z,12.20
2018-06-22T07:13:54.080Z,12.40
2018-06-22T07:18:50.608Z,12.60
2018-06-22T07:21:19.036Z,12.70
2018-06-22T07:23:47.461Z,12.70
2018-06-22T07:26:15.867Z,12.60
2018-06-22T07:33:40.511Z,12.40
2018-06-22T07:36:09.893Z,12.40
2018-06-22T07:43:34.576Z,12.90
2018-06-22T07:46:03.092Z,12.90
2018-06-22T07:48:31.536Z,13.00
2018-06-22T07:51:00.092Z,13.00
2018-06-22T07:53:28.453Z,12.90
2018-06-22T07:58:25.101Z,12.80
2018-06-22T08:03:21.612Z,12.90
2018-06-22T08:05:50.015Z,13.00
2018-06-22T08:08:18.385Z,12.90
2018-06-22T08:10:46.872Z,12.80
2018-06-22T08:13:15.334Z,13.00
2018-06-22T08:15:43.692Z,13.50
2018-06-22T08:18:12.096Z,13.80
2018-06-22T08:20:40.488Z,13.70
2018-06-22T08:23:08.926Z,13.60
2018-06-22T08:25:37.344Z,13.40
2018-06-22T08:28:05.731Z,13.30
2018-06-22T08:30:34.921Z,13.30
2018-06-22T08:33:03.324Z,13.40
2018-06-22T08:37:59.818Z,13.70
2018-06-22T08:40:28.572Z,13.70
2018-06-22T08:45:25.571Z,13.60
2018-06-22T08:47:53.948Z,13.70
2018-06-22T08:50:23.172Z,13.90
2018-06-22T08:52:51.569Z,14.00
2018-06-22T08:55:19.943Z,14.30
2018-06-22T08:57:48.826Z,14.30
2018-06-22T09:00:17.279Z,14.00
2018-06-22T09:02:48.623Z,13.80
2018-06-22T09:05:17.193Z,13.80
2018-06-22T09:07:45.611Z,13.90
2018-06-22T09:10:28.813Z,14.10
2018-06-22T09:15:25.289Z,14.00
2018-06-22T09:17:53.695Z,13.90
2018-06-22T09:20:23.243Z,13.90
2018-06-22T09:22:51.668Z,14.00
2018-06-22T09:25:20.117Z,14.00
2018-06-22T09:27:48.560Z,13.90
2018-06-22T09:37:41.328Z,14.20
2018-06-22T09:40:09.712Z,14.30
2018-06-22T09:42:38.125Z,14.30
2018-06-22T09:45:06.573Z,14.50
2018-06-22T09:47:35.049Z,14.70
2018-06-22T09:50:03.453Z,14.70
2018-06-22T09:57:28.114Z,15.00
2018-06-22T09:59:56.497Z,14.90
2018-06-22T10:04:53.114Z,15.20
2018-06-22T10:12:17.736Z,15.30
2018-06-22T10:14:46.154Z,15.30
2018-06-22T10:22:10.815Z,15.90
2018-06-22T10:24:39.260Z,16.20
2018-06-22T10:27:07.822Z,16.10
2018-06-22T10:29:36.088Z,16.30
2018-06-22T10:39:29.000Z,15.60
2018-06-22T10:41:57.406Z,15.50
2018-06-22T10:49:22.078Z,15.90
2018-06-22T10:51:50.474Z,15.80
2018-06-22T10:56:48.453Z,16.60
2018-06-22T10:59:16.910Z,16.40
2018-06-22T11:01:45.376Z,16.10
2018-06-22T11:04:13.753Z,16.50
2018-06-22T11:06:42.214Z,16.50
2018-06-22T11:09:11.922Z,16.40
2018-06-22T11:11:40.388Z,16.40
2018-06-22T11:14:08.856Z,16.40
2018-06-22T11:21:34.009Z,16.10
2018-06-22T11:26:31.085Z,16.40
2018-06-22T11:28:59.508Z,16.60
2018-06-22T11:31:27.914Z,16.90
2018-06-22T11:33:56.258Z,17.10
2018-06-22T11:36:24.742Z,16.80
2018-06-22T11:41:21.760Z,16.10
2018-06-22T11:43:51.379Z,16.10
2018-06-22T11:51:17.735Z,16.90
2018-06-22T11:58:44.388Z,17.70
2018-06-22T12:01:12.832Z,17.90
2018-06-22T12:03:41.225Z,17.70
2018-06-22T12:06:09.669Z,17.30
2018-06-22T12:11:06.591Z,17.60
2018-06-22T12:13:34.983Z,17.60
2018-06-22T12:18:33.238Z,17.10
2018-06-22T12:21:04.133Z,17.10
2018-06-22T12:28:28.919Z,17.90
2018-06-22T12:30:57.360Z,18.30
2018-06-22T12:33:25.759Z,18.50
2018-06-22T12:35:54.130Z,18.90
2018-06-22T12:38:22.525Z,20.30
2018-06-22T12:40:52.193Z,21.70
2018-06-22T12:45:49.839Z,21.00
2018-06-22T12:48:18.272Z,20.80
2018-06-22T12:50:47.035Z,21.50
2018-06-22T12:53:16.459Z,21.00
2018-06-22T12:55:44.884Z,23.40
2018-06-22T12:58:13.331Z,25.90
2018-06-22T13:00:42.957Z,27.40
2018-06-22T13:03:11.346Z,29.80
2018-06-22T13:05:39.720Z,27.90
2018-06-22T13:08:08.148Z,25.00
2018-06-22T13:10:36.507Z,22.60
2018-06-22T13:15:34.313Z,24.90
2018-06-22T13:18:02.719Z,23.80
2018-06-22T13:20:37.749Z,22.80
2018-06-22T13:23:07.271Z,21.90
2018-06-22T13:25:35.640Z,21.50
2018-06-22T13:28:04.077Z,23.10
2018-06-22T13:30:35.407Z,25.10
2018-06-22T13:33:03.839Z,26.00
2018-06-22T13:35:33.827Z,27.00
2018-06-22T13:38:03.265Z,25.80
2018-06-22T13:40:31.661Z,24.60
2018-06-22T13:43:00.004Z,23.30
2018-06-22T13:45:28.440Z,22.70
2018-06-22T13:47:56.879Z,22.80
2018-06-22T13:50:25.269Z,22.60
2018-06-22T13:52:53.639Z,22.30
2018-06-22T13:55:22.000Z,21.70
2018-06-22T13:57:50.420Z,21.40
2018-06-22T14:00:18.873Z,20.60
2018-06-22T14:02:47.416Z,20.20
2018-06-22T14:05:35.590Z,20.00
2018-06-22T14:08:04.030Z,19.80
2018-06-22T14:10:32.397Z,20.20
2018-06-22T14:13:00.828Z,19.90
2018-06-22T14:15:29.272Z,19.60
2018-06-22T14:17:57.656Z,19.90
2018-06-22T14:20:26.033Z,20.20
2018-06-22T14:22:54.416Z,19.90
2018-06-22T14:30:19.051Z,20.70
2018-06-22T14:35:15.865Z,22.30
2018-06-22T14:37:44.279Z,22.10
2018-06-22T14:40:12.670Z,21.40
2018-06-22T14:45:09.359Z,20.40
2018-06-22T14:47:37.838Z,20.90
2018-06-22T14:50:16.503Z,22.50
2018-06-22T14:52:46.918Z,24.40
2018-06-22T14:55:33.156Z,26.60
2018-06-22T15:01:06.582Z,26.00
2018-06-22T15:03:54.178Z,27.20
2018-06-22T15:06:41.493Z,28.00
2018-06-22T15:09:10.728Z,28.60
2018-06-22T15:11:40.347Z,27.30
2018-06-22T15:14:08.856Z,26.40
2018-06-22T15:16:37.322Z,25.70
2018-06-22T15:19:06.972Z,24.70
2018-06-22T15:21:36.797Z,23.90
2018-06-22T15:24:05.266Z,23.40
2018-06-22T15:26:33.640Z,23.40
2018-06-22T15:29:07.081Z,23.00
2018-06-22T15:31:37.949Z,22.50
2018-06-22T15:39:56.822Z,21.00
2018-06-22T15:42:45.769Z,20.40
2018-06-22T15:45:32.902Z,20.20
2018-06-22T15:48:19.241Z,20.30
2018-06-22T15:51:21.889Z,20.00
2018-06-22T15:54:09.420Z,20.00
2018-06-22T15:56:37.813Z,19.80
2018-06-22T16:01:37.063Z,19.50
2018-06-22T16:04:12.385Z,19.50
2018-06-22T16:06:40.800Z,19.60
2018-06-22T16:09:10.621Z,19.70
2018-06-22T16:11:39.885Z,19.80
2018-06-22T16:14:26.185Z,20.00
2018-06-22T16:17:12.318Z,20.60
2018-06-22T16:19:58.320Z,20.20
2018-06-22T16:22:44.618Z,20.30
2018-06-22T16:25:30.979Z,20.20
2018-06-22T16:28:08.189Z,20.90
2018-06-22T16:30:36.697Z,21.20
2018-06-22T16:33:05.091Z,21.10
2018-06-22T16:38:01.601Z,20.30
2018-06-22T16:40:30.014Z,19.90
2018-06-22T16:42:58.435Z,19.50
2018-06-22T16:45:26.899Z,19.20
2018-06-22T16:50:23.460Z,18.80
2018-06-22T16:55:19.979Z,18.60
2018-06-22T16:57:49.961Z,18.40
2018-06-22T17:00:18.419Z,18.50
2018-06-22T17:02:46.922Z,18.50
2018-06-22T17:05:15.444Z,18.50
2018-06-22T17:08:01.635Z,18.60
2018-06-22T17:10:47.860Z,18.50
2018-06-22T17:13:34.022Z,18.50
2018-06-22T17:16:20.406Z,18.40
2018-06-22T17:18:56.742Z,18.20
2018-06-22T17:21:25.176Z,18.00
2018-06-22T17:23:54.059Z,17.90
2018-06-22T17:26:22.452Z,18.00
2018-06-22T17:28:51.009Z,18.00
2018-06-22T17:31:19.369Z,18.30
2018-06-22T17:33:47.769Z,18.10
2018-06-22T17:38:45.211Z,18.10
2018-06-22T17:41:13.569Z,17.90
2018-06-22T17:46:10.161Z,17.60
2018-06-22T17:48:38.549Z,17.50
2018-06-22T17:51:07.002Z,17.50
2018-06-22T17:56:03.500Z,17.40
2018-06-22T17:58:31.884Z,17.20
2018-06-22T18:01:31.495Z,17.00
2018-06-22T18:04:17.712Z,17.00
2018-06-22T18:09:50.028Z,16.90
2018-06-22T18:12:36.341Z,16.70
2018-06-22T18:17:33.035Z,16.50
2018-06-22T18:20:01.487Z,16.50
2018-06-22T18:24:57.965Z,16.30
2018-06-22T18:27:26.405Z,16.30
2018-06-22T18:32:22.977Z,16.10
2018-06-22T18:34:51.389Z,16.10
2018-06-22T18:37:19.875Z,16.00
2018-06-22T18:39:48.307Z,16.00
2018-06-22T18:42:16.741Z,16.10
2018-06-22T18:44:47.518Z,15.90
2018-06-22T18:49:44.161Z,16.00
2018-06-22T18:55:16.602Z,15.80
2018-06-22T18:58:02.831Z,15.70
2018-06-22T19:03:35.031Z,15.60
2018-06-22T19:08:31.659Z,15.90
2018-06-22T19:11:00.071Z,15.60
2018-06-22T19:18:24.712Z,15.40
2018-06-22T19:20:53.272Z,15.40
2018-06-22T19:23:21.658Z,15.30
2018-06-22T19:28:18.179Z,15.20
2018-06-22T19:30:46.575Z,15.10
2018-06-22T19:33:14.963Z,15.30
2018-06-22T19:35:43.336Z,15.10
2018-06-22T19:38:11.694Z,15.00
2018-06-22T19:40:40.046Z,14.90
2018-06-22T19:43:27.619Z,15.10
2018-06-22T19:46:13.906Z,14.90
2018-06-22T19:49:00.275Z,14.80
2018-06-22T19:51:46.424Z,14.70
2018-06-22T19:56:42.926Z,14.60
2018-06-22T19:59:11.232Z,14.50
2018-06-22T20:01:39.636Z,14.80
2018-06-22T20:06:36.104Z,14.60
2018-06-22T20:14:03.902Z,14.60
2018-06-22T20:21:28.795Z,14.60
2018-06-22T20:23:57.152Z,14.50
2018-06-22T20:26:25.518Z,14.60
2018-06-22T20:28:53.895Z,14.60
2018-06-22T20:37:14.096Z,14.50
2018-06-22T20:45:32.335Z,14.40
2018-06-22T20:48:18.572Z,14.30
2018-06-22T20:50:47.112Z,14.20
2018-06-22T20:53:15.476Z,14.20
2018-06-22T20:55:43.891Z,14.10
2018-06-22T20:58:12.243Z,14.00
2018-06-22T21:00:40.687Z,14.10
2018-06-22T21:03:10.158Z,14.10
2018-06-22T21:05:38.516Z,14.10
2018-06-22T21:08:06.955Z,14.00
2018-06-22T21:10:35.402Z,14.30
2018-06-22T21:13:03.829Z,14.40
2018-06-22T21:15:32.163Z,14.20
2018-06-22T21:18:00.583Z,14.10
2018-06-22T21:20:28.919Z,14.00
2018-06-22T21:22:57.305Z,14.00
2018-06-22T21:30:59.004Z,13.80
2018-06-22T21:33:45.205Z,13.70
2018-06-22T21:39:01.836Z,13.60
2018-06-22T21:43:59.795Z,13.90
2018-06-22T21:46:28.188Z,13.80
2018-06-22T21:53:52.913Z,13.50
2018-06-22T21:56:22.487Z,13.40
2018-06-22T21:58:51.746Z,13.60
2018-06-22T22:03:48.223Z,13.30
2018-06-22T22:06:16.679Z,13.30
2018-06-22T22:11:13.066Z,13.20
2018-06-22T22:13:41.680Z,13.10
2018-06-22T22:16:11.347Z,13.30
2018-06-22T22:18:39.720Z,13.20
2018-06-22T22:21:08.116Z,13.10
2018-06-22T22:23:36.462Z,13.00
2018-06-22T22:28:34.096Z,13.00
2018-06-22T22:31:02.451Z,12.90
2018-06-22T22:33:30.792Z,12.80
2018-06-22T22:35:59.137Z,12.80
2018-06-22T22:38:27.480Z,12.80
2018-06-22T22:40:57.024Z,12.80
2018-06-22T22:43:26.765Z,13.10
2018-06-22T22:48:23.201Z,12.90
2018-06-22T22:53:19.672Z,12.70
2018-06-22T22:58:17.644Z,12.60
2018-06-22T23:03:15.657Z,12.60
2018-06-22T23:05:46.411Z,12.50
2018-06-22T23:08:13.226Z,12.50
2018-06-22T23:10:41.562Z,12.40
2018-06-22T23:13:09.958Z,12.40
2018-06-22T23:15:38.245Z,12.40
2018-06-22T23:20:34.759Z,12.40
2018-06-22T23:23:34.427Z,12.40
2018-06-22T23:26:03.339Z,12.40
2018-06-22T23:28:31.703Z,12.60
2018-06-22T23:31:13.981Z,12.50
2018-06-22T23:36:11.781Z,12.30
2018-06-22T23:41:09.117Z,12.20
2018-06-22T23:43:37.443Z,12.20
2018-06-22T23:46:06.905Z,12.20
2018-06-22T23:48:35.231Z,12.20
2018-06-22T23:51:03.531Z,12.20
2018-06-22T23:53:31.914Z,12.10
2018-06-22T23:56:00.205Z,12.10
2018-06-22T23:58:28.604Z,12.10
